Time;durP1;ratioP1;P1;durP2;ratioP2;P2;SDS_P1;SDS_P2;PMS_P1;PMS_P2;Temp;Humidity;BMP_temperature;BMP_pressure;BME280_temperature;BME280_humidity;BME280_pressure;Samples;Min_cycle;Max_cycle;Signal;HPM_P1;HPM_P2
2023/05/17 00:01:23;;;;;;;7.68;5.07;;;;;;;12.35;70.02;100367.91;5064911;28;20052;-68
2023/05/17 00:03:52;;;;;;;6.28;5.55;;;;;;;12.39;69.72;100358.16;5065215;28;20044;-69
2023/05/17 00:06:19;;;;;;;7.05;5.07;;;;;;;12.38;69.75;100353.84;5064988;28;20102;-69
2023/05/17 00:08:46;;;;;;;6.05;5.45;;;;;;;12.32;70.13;100339.19;5065614;28;20047;-69
2023/05/17 00:11:13;;;;;;;6.15;5.65;;;;;;;12.37;70.27;100350.34;5065525;28;20048;-69
2023/05/17 00:13:41;;;;;;;9.20;5.68;;;;;;;12.37;70.12;100345.09;5065045;28;20070;-68
2023/05/17 00:16:08;;;;;;;8.43;5.68;;;;;;;12.37;70.15;100352.13;5061339;28;20477;-68
2023/05/17 00:18:35;;;;;;;8.70;5.35;;;;;;;12.37;70.42;100358.19;5066567;28;20052;-69
2023/05/17 00:21:02;;;;;;;8.40;6.15;;;;;;;12.34;70.22;100350.44;5061290;28;20049;-69
2023/05/17 00:23:29;;;;;;;6.28;5.70;;;;;;;12.35;70.23;100354.81;5058596;28;20501;-68
2023/05/17 00:25:56;;;;;;;7.80;4.65;;;;;;;12.35;70.74;100357.41;5060749;28;20048;-69
2023/05/17 00:28:22;;;;;;;7.50;5.45;;;;;;;12.37;70.10;100357.34;5063768;28;20057;-69
2023/05/17 00:30:51;;;;;;;5.85;5.28;;;;;;;12.36;70.60;100359.13;5065455;28;20060;-69
2023/05/17 00:33:17;;;;;;;6.75;4.97;;;;;;;12.35;70.39;100360.03;5062259;28;20044;-68
2023/05/17 00:35:44;;;;;;;6.28;5.75;;;;;;;12.37;70.30;100352.97;5062846;28;20041;-68
2023/05/17 00:38:11;;;;;;;7.65;5.78;;;;;;;12.37;70.65;100357.34;5057425;28;20041;-69
2023/05/17 00:40:38;;;;;;;7.80;5.93;;;;;;;12.37;70.48;100357.34;5061091;28;20036;-68
2023/05/17 00:43:05;;;;;;;6.95;5.82;;;;;;;12.37;70.42;100360.81;5064386;28;20045;-68
2023/05/17 00:45:31;;;;;;;6.18;5.57;;;;;;;12.37;70.59;100359.97;5062520;28;20052;-68
2023/05/17 00:48:00;;;;;;;6.43;5.82;;;;;;;12.35;70.74;100346.94;5059427;28;20044;-69
2023/05/17 00:50:27;;;;;;;6.07;5.57;;;;;;;12.37;70.78;100358.19;5064697;28;20056;-68
2023/05/17 00:52:55;;;;;;;6.45;5.85;;;;;;;12.38;70.75;100353.84;5062630;28;20055;-68
2023/05/17 00:55:22;;;;;;;6.28;5.75;;;;;;;12.37;70.72;100352.97;5061236;28;20049;-69
2023/05/17 00:57:49;;;;;;;6.22;5.63;;;;;;;12.37;70.78;100345.09;5061957;28;20615;-68
2023/05/17 01:00:17;;;;;;;6.40;5.80;;;;;;;12.38;70.81;100346.84;5063460;28;20049;-68
2023/05/17 01:02:47;;;;;;;6.88;6.07;;;;;;;12.38;70.60;100353.84;5065289;28;20079;-68
2023/05/17 01:05:15;;;;;;;5.57;5.07;;;;;;;12.37;70.65;100347.72;5066430;28;20110;-69
2023/05/17 01:07:42;;;;;;;7.22;6.53;;;;;;;12.38;70.82;100354.69;5062593;28;20052;-70
2023/05/17 01:10:10;;;;;;;5.80;5.28;;;;;;;12.32;70.95;100338.31;5058961;28;20048;-69
2023/05/17 01:12:49;;;;;;;7.32;6.28;;;;;;;12.38;71.03;100352.06;5062126;28;20048;-69
2023/05/17 01:15:22;;;;;;;6.47;5.88;;;;;;;12.38;70.86;100352.06;5066679;28;20045;-70
2023/05/17 01:17:54;;;;;;;6.53;5.88;;;;;;;12.38;71.08;100349.47;5063909;28;20049;-70
2023/05/17 01:20:28;;;;;;;6.78;5.18;;;;;;;12.38;70.80;100354.69;5061969;28;20048;-69
2023/05/17 01:23:10;;;;;;;5.93;5.50;;;;;;;12.38;71.05;100346.84;5063365;28;20052;-70
2023/05/17 01:25:54;;;;;;;6.07;5.60;;;;;;;12.36;70.89;100345.19;5062410;28;20076;-70
2023/05/17 01:28:23;;;;;;;7.18;5.82;;;;;;;12.37;71.23;100346.88;5060316;28;20128;-70
2023/05/17 01:30:51;;;;;;;5.35;4.95;;;;;;;12.38;71.04;100349.47;5058732;28;20044;-69
2023/05/17 01:33:19;;;;;;;7.57;5.57;;;;;;;12.37;71.19;100342.50;5062340;28;20823;-70
2023/05/17 01:35:46;;;;;;;8.40;5.95;;;;;;;12.40;71.28;100340.69;5065000;28;20060;-70
2023/05/17 01:38:13;;;;;;;5.32;4.82;;;;;;;12.42;71.46;100344.13;5062049;28;20064;-69
2023/05/17 01:40:47;;;;;;;10.55;6.60;;;;;;;12.41;71.52;100338.03;5060549;28;20055;-69
2023/05/17 01:43:21;;;;;;;6.38;5.82;;;;;;;12.41;71.46;100340.66;5056915;28;20145;-69
2023/05/17 01:45:58;;;;;;;6.70;5.82;;;;;;;12.41;71.16;100327.56;5059643;28;20041;-69
2023/05/17 01:48:31;;;;;;;7.75;5.75;;;;;;;12.41;71.47;100326.66;5060899;28;20044;-69
2023/05/17 01:50:59;;;;;;;8.43;5.60;;;;;;;12.41;71.38;100332.78;5062094;28;21756;-70
2023/05/17 01:53:30;;;;;;;13.13;6.10;;;;;;;12.40;71.35;100332.81;5063906;28;20068;-70
2023/05/17 01:56:03;;;;;;;6.00;5.40;;;;;;;12.41;71.56;100330.16;5061823;28;20044;-70
2023/05/17 01:58:31;;;;;;;6.13;5.53;;;;;;;12.42;71.35;100331.03;5061628;28;20063;-70
2023/05/17 02:01:01;;;;;;;6.60;5.70;;;;;;;12.41;71.23;100329.28;5056057;28;20052;-69
2023/05/17 02:03:29;;;;;;;6.38;5.22;;;;;;;12.42;70.98;100328.41;5062911;28;20488;-70
2023/05/17 02:05:56;;;;;;;7.55;6.07;;;;;;;12.40;71.36;100333.69;5061215;28;20055;-69
2023/05/17 02:08:23;;;;;;;6.47;5.57;;;;;;;12.41;71.11;100330.16;5061582;28;20048;-69
2023/05/17 02:10:49;;;;;;;5.22;4.82;;;;;;;12.42;71.28;100328.41;5057141;28;20053;-70
2023/05/17 02:13:16;;;;;;;5.75;5.15;;;;;;;12.41;71.05;100327.56;5064532;28;20079;-69
2023/05/17 02:15:43;;;;;;;5.78;5.25;;;;;;;12.41;71.15;100326.66;5062068;28;20052;-70
2023/05/17 02:18:11;;;;;;;8.27;5.65;;;;;;;12.40;71.19;100328.44;5060281;28;20507;-69
2023/05/17 02:20:38;;;;;;;7.25;5.97;;;;;;;12.41;71.16;100329.28;5058024;28;20049;-70
2023/05/17 02:23:05;;;;;;;6.95;6.25;;;;;;;12.39;71.12;100329.34;5061413;28;20067;-69
2023/05/17 02:25:32;;;;;;;5.75;5.30;;;;;;;12.38;71.10;100323.28;5062249;28;20165;-70
2023/05/17 02:27:59;;;;;;;8.70;5.30;;;;;;;12.38;71.48;100323.28;5059285;28;20983;-70
2023/05/17 02:30:28;;;;;;;6.18;5.60;;;;;;;12.37;71.24;100328.53;5060392;28;20064;-75
2023/05/17 02:32:55;;;;;;;8.57;5.82;;;;;;;12.38;71.22;100323.28;5059123;28;20045;-70
2023/05/17 02:35:24;;;;;;;6.43;5.82;;;;;;;12.38;71.47;100320.66;5064147;28;20102;-69
2023/05/17 02:37:51;;;;;;;7.32;6.60;;;;;;;12.37;71.54;100312.81;5058748;28;20040;-70
2023/05/17 02:40:18;;;;;;;8.88;6.03;;;;;;;12.35;71.67;100315.50;5058219;28;20053;-70
2023/05/17 02:42:45;;;;;;;7.57;6.78;;;;;;;12.37;71.56;100321.53;5061565;28;20048;-70
2023/05/17 02:45:11;;;;;;;6.72;6.13;;;;;;;12.36;71.32;100325.06;5055603;28;20048;-70
2023/05/17 02:47:38;;;;;;;6.50;5.90;;;;;;;12.36;71.31;100322.44;5058454;28;20049;-70
2023/05/17 02:50:06;;;;;;;6.93;6.30;;;;;;;12.35;71.61;100327.72;5060560;28;20056;-70
2023/05/17 02:52:34;;;;;;;6.72;6.13;;;;;;;12.35;71.41;100330.34;5062682;28;20121;-70
2023/05/17 02:55:01;;;;;;;7.15;5.80;;;;;;;12.31;71.31;100326.13;5054851;28;20118;-70
2023/05/17 02:57:28;;;;;;;6.80;5.70;;;;;;;12.34;71.47;100336.50;5063623;28;20520;-69
2023/05/17 02:59:55;;;;;;;6.13;5.40;;;;;;;12.33;71.74;100322.56;5063186;28;20406;-69
2023/05/17 03:02:22;;;;;;;7.13;5.85;;;;;;;12.32;71.27;100333.06;5060792;28;20069;-69
2023/05/17 03:04:48;;;;;;;6.60;5.85;;;;;;;12.32;71.74;100328.72;5059834;28;20044;-69
2023/05/17 03:07:15;;;;;;;6.88;6.20;;;;;;;12.32;71.67;100328.72;5061698;28;20417;-69
2023/05/17 03:09:43;;;;;;;7.93;5.30;;;;;;;12.32;71.79;100335.69;5062860;28;20056;-69
2023/05/17 03:12:10;;;;;;;8.77;5.78;;;;;;;12.32;71.71;100341.81;5049151;28;20048;-69
2023/05/17 03:14:37;;;;;;;5.88;5.30;;;;;;;12.32;71.69;100335.69;5058773;28;20060;-69
2023/05/17 03:17:04;;;;;;;6.55;5.85;;;;;;;12.34;72.02;100336.50;5057839;28;20051;-69
2023/05/17 03:19:31;;;;;;;6.35;5.70;;;;;;;12.34;71.96;100326.03;5059380;28;20051;-69
2023/05/17 03:21:58;;;;;;;6.78;5.43;;;;;;;12.34;71.84;100329.50;5062491;28;20055;-69
2023/05/17 03:24:24;;;;;;;6.28;4.60;;;;;;;12.35;71.89;100330.34;5058215;28;20052;-69
2023/05/17 03:26:53;;;;;;;5.95;5.32;;;;;;;12.37;72.12;100333.78;5060153;28;20052;-69
2023/05/17 03:29:19;;;;;;;5.18;4.68;;;;;;;12.37;72.13;100336.41;5056949;28;20055;-69
2023/05/17 03:31:46;;;;;;;5.88;5.30;;;;;;;12.38;71.95;100333.75;5058980;28;20067;-70
2023/05/17 03:34:13;;;;;;;5.30;4.90;;;;;;;12.35;72.04;100322.50;5059900;28;20048;-69
2023/05/17 03:36:40;;;;;;;8.50;5.50;;;;;;;12.42;71.80;100331.03;5060547;28;20051;-69
2023/05/17 03:39:07;;;;;;;8.40;5.20;;;;;;;12.43;71.96;100324.88;5059606;28;20080;-69
2023/05/17 03:41:34;;;;;;;5.03;4.53;;;;;;;12.45;72.00;100320.44;5062023;28;20398;-69
2023/05/17 03:44:02;;;;;;;4.45;4.15;;;;;;;12.46;72.03;100315.13;5061484;28;20489;-69
2023/05/17 03:46:29;;;;;;;5.15;4.15;;;;;;;12.46;71.94;100303.81;5057566;28;20416;-69
2023/05/17 03:48:56;;;;;;;4.82;4.43;;;;;;;12.48;71.64;100315.09;5059120;28;20044;-69
2023/05/17 03:51:23;;;;;;;8.63;4.30;;;;;;;12.46;71.89;100304.66;5057319;28;20052;-69
2023/05/17 03:53:57;;;;;;;5.13;4.47;;;;;;;12.50;71.78;100305.44;5057409;28;20527;-69
2023/05/17 03:56:23;;;;;;;8.88;3.75;;;;;;;12.50;71.67;100302.81;5057356;28;20817;-69
2023/05/17 03:58:50;;;;;;;5.78;4.80;;;;;;;12.50;71.61;100305.44;5055987;28;20045;-69
2023/05/17 04:01:19;;;;;;;5.97;4.47;;;;;;;12.51;71.83;100310.59;5057791;28;20041;-70
2023/05/17 04:03:46;;;;;;;5.15;4.72;;;;;;;12.53;71.41;100315.81;5060696;28;20084;-69
2023/05/17 04:06:14;;;;;;;4.63;4.32;;;;;;;12.53;71.75;100316.66;5059297;28;20051;-69
2023/05/17 04:08:41;;;;;;;4.60;4.07;;;;;;;12.55;71.68;100313.97;5057931;28;20445;-69
2023/05/17 04:11:11;;;;;;;3.60;3.25;;;;;;;12.56;71.72;100302.59;5059627;28;20041;-69
2023/05/17 04:13:38;;;;;;;4.15;3.85;;;;;;;12.57;71.79;100309.53;5060606;28;20049;-69
2023/05/17 04:16:06;;;;;;;4.63;4.30;;;;;;;12.58;71.53;100303.41;5058812;28;20056;-69
2023/05/17 04:18:35;;;;;;;4.28;3.88;;;;;;;12.58;71.94;100292.94;5058122;28;20064;-69
2023/05/17 04:21:02;;;;;;;4.32;4.03;;;;;;;12.60;71.97;100294.56;5060636;28;20087;-69
2023/05/17 04:23:29;;;;;;;4.03;3.67;;;;;;;12.61;71.82;100290.19;5060480;28;20055;-70
2023/05/17 04:25:56;;;;;;;3.55;3.35;;;;;;;12.63;71.70;100292.75;5055679;28;20037;-67
2023/05/17 04:28:23;;;;;;;4.88;4.47;;;;;;;12.65;71.98;100290.94;5059745;28;20045;-69
2023/05/17 04:30:51;;;;;;;4.38;4.07;;;;;;;12.66;71.64;100293.50;5058411;28;20762;-69
2023/05/17 04:33:17;;;;;;;4.10;3.80;;;;;;;12.67;71.92;100292.59;5057571;28;20497;-69
2023/05/17 04:35:46;;;;;;;6.50;3.45;;;;;;;12.68;72.07;100286.44;5057896;28;20059;-69
2023/05/17 04:38:13;;;;;;;4.53;4.00;;;;;;;12.69;71.90;100282.91;5062193;28;20072;-69
2023/05/17 04:40:41;;;;;;;3.78;3.58;;;;;;;12.70;72.16;100279.38;5059575;28;20052;-69
2023/05/17 04:43:08;;;;;;;5.05;4.43;;;;;;;12.71;72.19;100270.59;5063383;28;20109;-70
2023/05/17 04:45:36;;;;;;;5.03;3.90;;;;;;;12.73;72.02;100271.41;5062433;28;20114;-69
2023/05/17 04:48:03;;;;;;;4.95;4.30;;;;;;;12.73;72.01;100266.19;5058937;28;20098;-69
2023/05/17 04:50:30;;;;;;;4.38;3.97;;;;;;;12.75;72.05;100264.38;5064513;28;20059;-70
2023/05/17 04:52:58;;;;;;;4.72;4.30;;;;;;;12.73;72.11;100249.59;5060632;28;20078;-70
2023/05/17 04:55:25;;;;;;;4.13;3.83;;;;;;;12.77;71.81;100265.13;5065147;28;20057;-70
2023/05/17 04:57:52;;;;;;;4.75;4.45;;;;;;;12.80;71.78;100278.13;5065355;28;20106;-69
2023/05/17 05:00:21;;;;;;;4.13;3.70;;;;;;;12.80;71.73;100275.50;5064468;28;20051;-70
2023/05/17 05:02:48;;;;;;;4.40;4.10;;;;;;;12.82;71.87;100276.31;5061804;28;20048;-69
2023/05/17 05:05:15;;;;;;;4.47;3.75;;;;;;;12.77;71.67;100264.28;5064480;28;20052;-70
2023/05/17 05:07:42;;;;;;;4.50;3.58;;;;;;;12.86;71.76;100277.06;5063814;28;20601;-70
2023/05/17 05:10:10;;;;;;;4.70;4.32;;;;;;;12.88;71.75;100277.03;5064494;28;20060;-69
2023/05/17 05:12:38;;;;;;;4.22;3.92;;;;;;;12.89;71.65;100279.56;5061544;28;20052;-70
2023/05/17 05:15:05;;;;;;;4.75;4.35;;;;;;;12.90;71.55;100293.56;5062898;28;20040;-69
2023/05/17 05:17:33;;;;;;;5.82;4.20;;;;;;;12.90;71.70;100293.56;5063483;28;20055;-70
2023/05/17 05:20:00;;;;;;;4.53;3.85;;;;;;;12.90;71.68;100299.66;5059821;28;20052;-70
2023/05/17 05:22:27;;;;;;;7.90;4.05;;;;;;;12.92;71.62;100296.97;5064497;28;20056;-70
2023/05/17 05:24:54;;;;;;;9.88;3.88;;;;;;;12.92;71.71;100302.19;5044774;28;20044;-69
2023/05/17 05:27:22;;;;;;;4.85;4.35;;;;;;;12.92;71.60;100303.09;5051102;28;20102;-70
2023/05/17 05:29:49;;;;;;;4.72;4.43;;;;;;;12.93;71.51;100303.94;5064067;28;20049;-70
2023/05/17 05:32:16;;;;;;;5.53;4.80;;;;;;;12.92;71.63;100299.56;5057811;28;20044;-69
2023/05/17 05:34:43;;;;;;;4.63;2.78;;;;;;;12.88;71.39;100311.94;5066662;28;20055;-70
2023/05/17 05:37:10;;;;;;;5.90;2.33;;;;;;;12.89;71.37;100320.66;5056309;28;20750;-70
2023/05/17 05:39:36;;;;;;;3.60;1.40;;;;;;;12.88;71.13;100324.19;5061393;28;20060;-70
2023/05/17 05:42:04;;;;;;;2.00;1.10;;;;;;;12.85;70.93;100332.19;5057344;28;20047;-69
2023/05/17 05:44:32;;;;;;;3.20;1.60;;;;;;;12.82;70.62;100339.22;5058487;28;20049;-69
2023/05/17 05:46:59;;;;;;;5.35;1.60;;;;;;;12.80;70.69;100338.41;5057774;28;20049;-68
2023/05/17 05:49:26;;;;;;;2.45;1.52;;;;;;;12.80;70.68;100341.03;5062460;28;20053;-69
2023/05/17 05:51:52;;;;;;;1.70;1.60;;;;;;;12.78;70.63;100352.50;5059014;28;20045;-69
2023/05/17 05:54:19;;;;;;;3.47;1.25;;;;;;;12.77;70.27;100356.88;5060319;28;20060;-68
2023/05/17 05:56:46;;;;;;;4.95;1.00;;;;;;;12.75;70.44;100352.59;5060362;28;20060;-68
2023/05/17 05:59:13;;;;;;;2.85;0.88;;;;;;;12.74;70.17;100353.50;5063395;28;20516;-68
2023/05/17 06:01:41;;;;;;;4.10;1.25;;;;;;;12.73;69.92;100355.28;5058527;28;20045;-68
2023/05/17 06:04:08;;;;;;;1.95;1.15;;;;;;;12.70;69.79;100344.06;5055096;28;20780;-68
2023/05/17 06:06:35;;;;;;;7.20;1.05;;;;;;;12.61;69.64;100337.38;5056359;28;20049;-68
2023/05/17 06:09:02;;;;;;;2.17;0.90;;;;;;;12.60;69.62;100339.09;5055660;28;20585;-68
2023/05/17 06:11:29;;;;;;;1.33;0.60;;;;;;;12.51;69.49;100322.84;5062411;28;20143;-69
2023/05/17 06:13:56;;;;;;;2.42;0.65;;;;;;;12.55;69.43;100335.81;5059317;28;20048;-69
2023/05/17 06:16:23;;;;;;;2.80;0.77;;;;;;;12.51;69.47;100326.31;5059314;28;20076;-69
2023/05/17 06:18:51;;;;;;;6.72;0.77;;;;;;;12.47;69.65;100329.09;5059596;28;20037;-69
2023/05/17 06:21:18;;;;;;;1.88;0.77;;;;;;;12.45;69.51;100328.28;5061663;28;20223;-69
2023/05/17 06:23:45;;;;;;;2.58;0.90;;;;;;;12.42;69.90;100331.88;5062528;28;20049;-69
2023/05/17 06:26:11;;;;;;;1.75;0.88;;;;;;;12.41;69.95;100338.03;5055702;28;20052;-70
2023/05/17 06:28:38;;;;;;;1.45;1.00;;;;;;;12.41;70.25;100342.38;5060130;28;20058;-69
2023/05/17 06:31:05;;;;;;;2.67;1.05;;;;;;;12.39;70.46;100334.59;5057897;28;20051;-67
2023/05/17 06:33:32;;;;;;;2.05;0.70;;;;;;;12.42;70.97;100346.75;5062168;28;20531;-69
2023/05/17 06:36:00;;;;;;;2.40;1.08;;;;;;;12.44;71.22;100343.16;5056163;28;20051;-69
2023/05/17 06:38:27;;;;;;;1.63;0.88;;;;;;;12.47;71.37;100342.22;5061294;28;20053;-69
2023/05/17 06:40:56;;;;;;;3.78;0.82;;;;;;;12.48;70.88;100341.28;5060189;28;20091;-69
2023/05/17 06:43:23;;;;;;;3.60;1.45;;;;;;;12.51;71.60;100333.31;5063284;28;20481;-69
2023/05/17 06:45:50;;;;;;;2.20;1.65;;;;;;;12.55;71.57;100334.91;5060094;28;20048;-69
2023/05/17 06:48:17;;;;;;;1.63;1.52;;;;;;;12.57;72.42;100333.13;5057218;28;20060;-66
2023/05/17 06:50:44;;;;;;;2.80;1.80;;;;;;;12.64;72.56;100339.03;5058481;28;20040;-69
2023/05/17 06:53:12;;;;;;;1.85;1.63;;;;;;;12.71;72.65;100341.38;5059146;28;20044;-68
2023/05/17 06:55:39;;;;;;;1.92;1.83;;;;;;;12.78;72.30;100342.88;5056043;28;20044;-68
2023/05/17 06:58:05;;;;;;;2.40;2.00;;;;;;;12.85;72.69;100337.41;5059893;28;20481;-67
2023/05/17 07:00:32;;;;;;;4.57;1.80;;;;;;;12.92;72.64;100336.28;5055397;28;20048;-68
2023/05/17 07:02:59;;;;;;;2.45;1.60;;;;;;;12.99;72.38;100337.78;5062057;28;20050;-68
2023/05/17 07:05:27;;;;;;;1.58;1.48;;;;;;;13.07;72.30;100342.78;5063793;28;20053;-68
2023/05/17 07:07:54;;;;;;;1.80;1.70;;;;;;;13.10;71.99;100338.25;5063513;28;20072;-68
2023/05/17 07:10:23;;;;;;;6.57;1.40;;;;;;;13.20;71.65;100349.28;5058574;28;20421;-68
2023/05/17 07:12:49;;;;;;;2.78;1.27;;;;;;;13.26;71.39;100347.34;5059716;28;20040;-68
2023/05/17 07:15:16;;;;;;;3.88;1.33;;;;;;;13.34;71.63;100361.91;5057785;28;20055;-68
2023/05/17 07:17:43;;;;;;;3.17;1.48;;;;;;;13.41;71.61;100366.91;5063812;28;20051;-68
2023/05/17 07:20:11;;;;;;;1.25;1.15;;;;;;;13.47;71.57;100366.66;5059592;28;20049;-68
2023/05/17 07:22:38;;;;;;;2.10;1.50;;;;;;;13.54;71.51;100369.91;5057580;28;20055;-67
2023/05/17 07:25:06;;;;;;;2.85;1.30;;;;;;;13.61;71.47;100378.44;5062201;28;20051;-68
2023/05/17 07:27:34;;;;;;;1.08;0.90;;;;;;;13.68;71.23;100386.00;5060611;28;20135;-67
2023/05/17 07:30:02;;;;;;;1.10;0.68;;;;;;;13.75;70.99;100385.78;5054342;28;20903;-68
2023/05/17 07:32:29;;;;;;;0.93;0.80;;;;;;;13.80;70.18;100387.28;5060113;28;20110;-68
2023/05/17 07:34:56;;;;;;;1.75;0.70;;;;;;;13.84;70.14;100388.91;5063238;28;20053;-67
2023/05/17 07:37:23;;;;;;;0.82;0.70;;;;;;;13.89;69.87;100391.38;5058992;28;20801;-68
2023/05/17 07:39:49;;;;;;;2.00;0.80;;;;;;;13.91;70.08;100395.63;5059294;28;20055;-68
2023/05/17 07:42:16;;;;;;;1.10;0.73;;;;;;;13.97;69.73;100399.78;5057767;28;20123;-67
2023/05/17 07:44:47;;;;;;;1.75;0.80;;;;;;;14.01;69.52;100397.91;5062499;28;20045;-68
2023/05/17 07:47:14;;;;;;;3.78;0.68;;;;;;;14.05;69.28;100407.38;5059551;28;20139;-68
2023/05/17 07:49:41;;;;;;;0.98;0.82;;;;;;;14.07;69.17;100410.81;5059599;28;20087;-68
2023/05/17 07:52:08;;;;;;;1.00;0.88;;;;;;;14.08;68.88;100407.25;5048801;28;20044;-68
2023/05/17 07:54:35;;;;;;;1.58;0.90;;;;;;;14.09;68.93;100415.09;5061065;28;20080;-68
2023/05/17 07:57:01;;;;;;;0.88;0.80;;;;;;;14.10;68.48;100424.66;5059662;28;20512;-68
2023/05/17 07:59:28;;;;;;;0.95;0.80;;;;;;;14.10;68.60;100427.28;5061379;28;20459;-68
2023/05/17 08:01:57;;;;;;;2.15;0.70;;;;;;;14.12;68.38;100427.25;5060195;28;20048;-68
2023/05/17 08:04:24;;;;;;;1.67;0.80;;;;;;;14.11;68.33;100422.91;5054177;28;20069;-68
2023/05/17 08:06:51;;;;;;;1.70;1.10;;;;;;;14.11;68.45;100428.16;5060971;28;20717;-68
2023/05/17 08:09:18;;;;;;;2.03;1.40;;;;;;;14.09;68.38;100430.84;5057833;28;20040;-68
2023/05/17 08:11:45;;;;;;;2.75;1.95;;;;;;;14.11;68.33;100433.41;5059062;28;21446;-69
2023/05/17 08:14:14;;;;;;;4.70;2.03;;;;;;;14.11;68.56;100444.75;5064766;28;20048;-68
2023/05/17 08:16:41;;;;;;;2.67;1.73;;;;;;;14.10;68.40;100448.31;5059148;28;20084;-68
2023/05/17 08:19:13;;;;;;;3.40;2.30;;;;;;;14.12;68.75;100443.00;5060527;28;20060;-69
2023/05/17 08:21:41;;;;;;;2.40;1.90;;;;;;;14.11;68.80;100443.91;5061775;28;20049;-69
2023/05/17 08:24:08;;;;;;;3.67;2.63;;;;;;;14.13;69.21;100452.59;5056936;28;20037;-69
2023/05/17 08:26:35;;;;;;;2.13;2.03;;;;;;;14.17;68.94;100460.31;5059499;28;20044;-68
2023/05/17 08:29:03;;;;;;;1.00;0.73;;;;;;;14.18;68.39;100472.50;5061983;28;20051;-69
2023/05/17 08:31:30;;;;;;;2.28;0.80;;;;;;;14.17;67.77;100489.22;5058569;28;20048;-69
2023/05/17 08:33:57;;;;;;;1.48;0.50;;;;;;;14.12;67.75;100493.78;5060077;28;20044;-69
2023/05/17 08:36:25;;;;;;;1.30;0.40;;;;;;;14.08;67.17;100502.66;5057056;28;20053;-69
2023/05/17 08:38:52;;;;;;;0.60;0.40;;;;;;;14.01;67.21;100516.94;5059572;28;20070;-70
2023/05/17 08:41:20;;;;;;;0.30;0.20;;;;;;;13.96;66.75;100524.13;5059661;28;20045;-70
2023/05/17 08:43:48;;;;;;;0.80;0.30;;;;;;;13.89;66.80;100541.03;5065930;28;20080;-69
2023/05/17 08:46:17;;;;;;;0.55;0.30;;;;;;;13.84;66.58;100545.59;5060506;28;20472;-73
2023/05/17 08:48:46;;;;;;;0.30;0.30;;;;;;;13.78;66.37;100536.16;5062424;28;20494;-81
2023/05/17 08:51:15;;;;;;;2.08;0.30;;;;;;;13.70;66.31;100541.66;5060595;28;20132;-76
2023/05/17 08:53:45;;;;;;;4.22;0.30;;;;;;;13.66;66.18;100545.34;5061191;28;20055;-81
2023/05/17 08:56:14;;;;;;;0.20;0.20;;;;;;;13.59;66.03;100554.31;5064867;28;20052;-75
2023/05/17 08:58:43;;;;;;;0.38;0.38;;;;;;;13.53;65.96;100559.78;5062342;28;20052;-76
2023/05/17 09:01:11;;;;;;;1.10;0.20;;;;;;;13.47;65.81;100563.47;5059234;28;20513;-77
2023/05/17 09:03:41;;;;;;;0.50;0.20;;;;;;;13.41;66.09;100573.31;5061953;28;20088;-77
2023/05/17 09:06:09;;;;;;;1.00;0.30;;;;;;;13.35;66.06;100568.25;5064077;28;20048;-75
2023/05/17 09:08:37;;;;;;;0.22;0.22;;;;;;;13.28;66.01;100567.59;5059876;28;20049;-76
2023/05/17 09:11:06;;;;;;;3.38;0.70;;;;;;;13.24;66.28;100573.84;5066399;28;20052;-75
2023/05/17 09:13:32;;;;;;;0.55;0.20;;;;;;;13.21;66.42;100584.44;5058753;28;20552;-75
2023/05/17 09:15:59;;;;;;;1.65;0.30;;;;;;;13.16;66.27;100578.47;5063725;28;20056;-76
2023/05/17 09:18:31;;;;;;;0.40;0.40;;;;;;;13.13;66.15;100600.41;5065858;28;20429;-76
2023/05/17 09:21:02;;;;;;;1.77;0.30;;;;;;;13.06;65.76;100604.13;5058342;28;20048;-79
2023/05/17 09:23:31;;;;;;;0.30;0.30;;;;;;;12.99;65.94;100608.69;5065063;28;20131;-81
2023/05/17 09:26:06;;;;;;;0.55;0.30;;;;;;;12.92;65.75;100625.53;5059282;28;20133;-75
2023/05/17 09:28:39;;;;;;;0.32;0.32;;;;;;;12.87;65.72;100634.44;5060588;28;20558;-75
2023/05/17 09:31:07;;;;;;;0.98;0.50;;;;;;;12.78;65.52;100631.19;5061404;28;20115;-75
2023/05/17 09:33:34;;;;;;;0.30;0.30;;;;;;;12.72;65.36;100641.88;5060303;28;20057;-75
2023/05/17 09:36:01;;;;;;;3.40;0.30;;;;;;;12.66;65.33;100651.66;5061845;28;20151;-74
2023/05/17 09:38:29;;;;;;;1.38;0.30;;;;;;;12.58;65.33;100665.00;5057886;28;20040;-75
2023/05/17 09:40:56;;;;;;;2.15;0.30;;;;;;;12.53;65.23;100661.66;5058768;28;20047;-81
2023/05/17 09:43:26;;;;;;;1.02;0.20;;;;;;;12.46;65.37;100660.94;5063415;28;20041;-81
2023/05/17 09:45:57;;;;;;;4.78;0.22;;;;;;;12.42;65.09;100663.69;5059400;28;20113;-83
2023/05/17 09:48:27;;;;;;;1.00;0.20;;;;;;;12.36;65.36;100670.81;5065182;28;20053;-78
2023/05/17 09:50:54;;;;;;;0.10;0.10;;;;;;;12.30;65.34;100676.22;5065011;28;20047;-78
2023/05/17 09:53:28;;;;;;;0.20;0.10;;;;;;;12.25;65.12;100677.25;5060606;28;20040;-78
2023/05/17 09:55:57;;;;;;;0.20;0.20;;;;;;;12.21;65.04;100688.69;5057189;28;20049;-78
2023/05/17 09:58:27;;;;;;;0.10;0.10;;;;;;;12.17;65.27;100690.53;5057905;28;20041;-77
2023/05/17 10:00:58;;;;;;;0.05;0.00;;;;;;;12.12;64.78;100690.69;5060197;28;20543;-79
2023/05/17 10:03:27;;;;;;;0.00;0.00;;;;;;;12.04;64.83;100686.53;5063521;28;20048;-79
2023/05/17 10:05:54;;;;;;;0.00;0.00;;;;;;;12.02;65.38;100693.56;5066175;28;20053;-79
2023/05/17 10:08:22;;;;;;;0.30;0.00;;;;;;;12.00;65.05;100704.06;5064104;28;20049;-78
2023/05/17 10:10:49;;;;;;;0.57;0.55;;;;;;;11.93;65.01;100703.38;5061874;28;20046;-79
2023/05/17 10:13:23;;;;;;;1.85;0.00;;;;;;;11.90;65.28;100702.59;5063775;28;20052;-78
2023/05/17 10:15:53;;;;;;;0.00;0.00;;;;;;;11.88;65.47;100704.38;5063949;28;20443;-77
2023/05/17 10:18:21;;;;;;;0.20;0.00;;;;;;;11.82;65.55;100709.75;5058325;28;20691;-78
2023/05/17 10:20:49;;;;;;;0.00;0.00;;;;;;;11.76;64.97;100705.53;5069174;28;20059;-77
2023/05/17 10:23:17;;;;;;;0.10;0.00;;;;;;;11.71;65.41;100718.72;5060093;28;20052;-79
2023/05/17 10:25:45;;;;;;;0.88;0.00;;;;;;;11.67;65.61;100727.53;5061017;28;20060;-79
2023/05/17 10:28:15;;;;;;;0.93;0.00;;;;;;;11.61;65.46;100726.81;5064591;28;20048;-77
2023/05/17 10:30:43;;;;;;;0.00;0.00;;;;;;;11.58;65.48;100732.13;5059226;28;20485;-77
2023/05/17 10:33:13;;;;;;;0.00;0.00;;;;;;;11.51;66.01;100731.41;5063266;28;20045;-79
2023/05/17 10:35:43;;;;;;;0.52;0.00;;;;;;;11.54;65.75;100735.72;5059469;28;20060;-80
2023/05/17 10:38:12;;;;;;;0.00;0.00;;;;;;;11.51;66.14;100743.63;5056851;28;20497;-78
2023/05/17 10:40:40;;;;;;;0.00;0.00;;;;;;;11.44;66.23;100746.38;5060811;28;20044;-80
2023/05/17 10:43:09;;;;;;;0.00;0.00;;;;;;;11.45;66.63;100755.09;5060133;28;20040;-79
2023/05/17 10:45:36;;;;;;;0.28;0.00;;;;;;;11.42;66.42;100753.41;5060681;28;20059;-82
2023/05/17 10:48:05;;;;;;;0.00;0.00;;;;;;;11.38;66.80;100754.34;5063363;28;20056;-78
2023/05/17 10:50:38;;;;;;;0.52;0.00;;;;;;;11.40;67.15;100757.78;5059990;28;20145;-79
2023/05/17 10:53:09;;;;;;;0.20;0.00;;;;;;;11.41;67.22;100762.16;5061401;28;20041;-73
2023/05/17 10:55:39;;;;;;;0.17;0.10;;;;;;;11.41;66.93;100753.41;5058133;28;20080;-77
2023/05/17 10:58:18;;;;;;;0.80;0.00;;;;;;;11.41;66.99;100740.34;5058395;28;20083;-77
2023/05/17 11:00:47;;;;;;;0.00;0.00;;;;;;;11.43;67.13;100746.41;5058862;28;20132;-81
2023/05/17 11:03:19;;;;;;;1.40;0.10;;;;;;;11.45;67.68;100765.56;5061958;28;20049;-79
2023/05/17 11:06:14;;;;;;;0.65;0.00;;;;;;;11.46;67.22;100775.97;5060308;28;20463;-77
2023/05/17 11:08:48;;;;;;;0.90;0.10;;;;;;;11.47;66.64;100789.94;5060807;28;20056;-82
2023/05/17 11:11:18;;;;;;;0.00;0.00;;;;;;;11.44;66.92;100788.25;5060828;28;20045;-79
2023/05/17 11:13:50;;;;;;;0.00;0.00;;;;;;;11.47;66.87;100806.47;5058180;28;20059;-77
2023/05/17 11:16:18;;;;;;;0.00;0.00;;;;;;;11.49;65.94;100815.13;5060923;28;20421;-77
2023/05/17 11:18:49;;;;;;;0.00;0.00;;;;;;;11.48;66.00;100820.41;5053928;28;20055;-76
2023/05/17 11:21:18;;;;;;;0.00;0.00;;;;;;;11.51;65.90;100819.50;5058213;28;20048;-77
2023/05/17 11:23:46;;;;;;;0.03;0.00;;;;;;;11.50;65.78;100816.03;5054516;28;20044;-77
2023/05/17 11:26:17;;;;;;;1.17;0.00;;;;;;;11.48;65.50;100821.28;5057833;28;20045;-80
2023/05/17 11:28:44;;;;;;;4.47;0.60;;;;;;;11.48;65.62;100825.66;5053886;28;20441;-80